sensor_id;sensor_type;location;lat;lon;timestamp;P1;durP1;ratioP1;P2;durP2;ratioP2
16442;SDS011;8331;51.654;14.376;2022-09-19T00:01:37;3.30;;;0.60;;
16442;SDS011;8331;51.654;14.376;2022-09-19T00:04:07;1.10;;;0.97;;
16442;SDS011;8331;51.654;14.376;2022-09-19T00:06:37;1.00;;;0.60;;
16442;SDS011;8331;51.654;14.376;2022-09-19T00:09:06;1.00;;;0.80;;
16442;SDS011;8331;51.654;14.376;2022-09-19T00:11:34;2.07;;;0.90;;
16442;SDS011;8331;51.654;14.376;2022-09-19T00:14:04;4.13;;;0.90;;
16442;SDS011;8331;51.654;14.376;2022-09-19T00:16:32;1.90;;;1.10;;
16442;SDS011;8331;51.654;14.376;2022-09-19T00:19:03;2.30;;;0.97;;
16442;SDS011;8331;51.654;14.376;2022-09-19T00:21:32;1.20;;;1.00;;
16442;SDS011;8331;51.654;14.376;2022-09-19T00:24:01;1.03;;;0.90;;
16442;SDS011;8331;51.654;14.376;2022-09-19T00:26:46;0.87;;;0.87;;
16442;SDS011;8331;51.654;14.376;2022-09-19T00:29:14;1.23;;;1.13;;
16442;SDS011;8331;51.654;14.376;2022-09-19T00:31:42;1.97;;;1.10;;
16442;SDS011;8331;51.654;14.376;2022-09-19T00:34:10;1.13;;;1.10;;
16442;SDS011;8331;51.654;14.376;2022-09-19T00:36:41;1.23;;;0.90;;
16442;SDS011;8331;51.654;14.376;2022-09-19T00:39:09;1.43;;;1.10;;
16442;SDS011;8331;51.654;14.376;2022-09-19T00:41:36;2.37;;;1.63;;
16442;SDS011;8331;51.654;14.376;2022-09-19T00:46:53;2.70;;;1.40;;
16442;SDS011;8331;51.654;14.376;2022-09-19T00:49:33;4.70;;;1.90;;
16442;SDS011;8331;51.654;14.376;2022-09-19T00:52:09;2.23;;;2.03;;
16442;SDS011;8331;51.654;14.376;2022-09-19T00:54:39;2.30;;;2.10;;
16442;SDS011;8331;51.654;14.376;2022-09-19T00:57:08;2.50;;;2.40;;
16442;SDS011;8331;51.654;14.376;2022-09-19T00:59:37;2.83;;;2.63;;
16442;SDS011;8331;51.654;14.376;2022-09-19T01:02:07;2.57;;;2.27;;
16442;SDS011;8331;51.654;14.376;2022-09-19T01:04:35;2.03;;;1.93;;
16442;SDS011;8331;51.654;14.376;2022-09-19T01:07:05;2.20;;;2.00;;
16442;SDS011;8331;51.654;14.376;2022-09-19T01:17:26;1.87;;;1.70;;
16442;SDS011;8331;51.654;14.376;2022-09-19T01:25:14;2.97;;;2.00;;
16442;SDS011;8331;51.654;14.376;2022-09-19T01:28:04;3.73;;;1.90;;
16442;SDS011;8331;51.654;14.376;2022-09-19T01:30:46;2.20;;;1.83;;
16442;SDS011;8331;51.654;14.376;2022-09-19T01:33:37;2.27;;;1.97;;
16442;SDS011;8331;51.654;14.376;2022-09-19T01:36:06;2.07;;;1.87;;
16442;SDS011;8331;51.654;14.376;2022-09-19T01:38:35;3.03;;;2.27;;
16442;SDS011;8331;51.654;14.376;2022-09-19T01:41:05;2.50;;;2.30;;
16442;SDS011;8331;51.654;14.376;2022-09-19T01:43:34;2.27;;;2.10;;
16442;SDS011;8331;51.654;14.376;2022-09-19T01:46:04;2.53;;;2.20;;
16442;SDS011;8331;51.654;14.376;2022-09-19T01:48:45;3.40;;;2.00;;
16442;SDS011;8331;51.654;14.376;2022-09-19T01:51:21;2.47;;;2.23;;
16442;SDS011;8331;51.654;14.376;2022-09-19T01:56:36;2.80;;;2.27;;
16442;SDS011;8331;51.654;14.376;2022-09-19T01:59:12;4.73;;;2.30;;
16442;SDS011;8331;51.654;14.376;2022-09-19T02:01:49;2.40;;;2.20;;
16442;SDS011;8331;51.654;14.376;2022-09-19T02:04:27;3.50;;;2.40;;
16442;SDS011;8331;51.654;14.376;2022-09-19T02:06:57;2.47;;;2.10;;
16442;SDS011;8331;51.654;14.376;2022-09-19T02:12:02;2.67;;;2.47;;
16442;SDS011;8331;51.654;14.376;2022-09-19T02:14:34;3.03;;;2.60;;
16442;SDS011;8331;51.654;14.376;2022-09-19T02:17:03;3.90;;;2.77;;
16442;SDS011;8331;51.654;14.376;2022-09-19T02:19:42;2.73;;;2.50;;
16442;SDS011;8331;51.654;14.376;2022-09-19T02:22:14;2.57;;;2.37;;
16442;SDS011;8331;51.654;14.376;2022-09-19T02:24:48;3.77;;;2.67;;
16442;SDS011;8331;51.654;14.376;2022-09-19T02:27:17;2.47;;;2.27;;
16442;SDS011;8331;51.654;14.376;2022-09-19T02:29:49;4.40;;;2.60;;
16442;SDS011;8331;51.654;14.376;2022-09-19T02:32:20;4.17;;;2.50;;
16442;SDS011;8331;51.654;14.376;2022-09-19T02:34:49;3.00;;;2.80;;
16442;SDS011;8331;51.654;14.376;2022-09-19T02:37:25;3.87;;;2.93;;
16442;SDS011;8331;51.654;14.376;2022-09-19T02:53:08;3.87;;;3.30;;
16442;SDS011;8331;51.654;14.376;2022-09-19T02:55:40;3.40;;;3.00;;
16442;SDS011;8331;51.654;14.376;2022-09-19T02:58:11;3.93;;;3.17;;
16442;SDS011;8331;51.654;14.376;2022-09-19T03:00:40;3.33;;;3.10;;
16442;SDS011;8331;51.654;14.376;2022-09-19T03:03:14;6.47;;;3.07;;
16442;SDS011;8331;51.654;14.376;2022-09-19T03:06:02;3.83;;;3.30;;
16442;SDS011;8331;51.654;14.376;2022-09-19T03:08:29;3.60;;;3.30;;
16442;SDS011;8331;51.654;14.376;2022-09-19T03:11:04;3.80;;;3.40;;
16442;SDS011;8331;51.654;14.376;2022-09-19T03:13:35;3.80;;;3.50;;
16442;SDS011;8331;51.654;14.376;2022-09-19T03:16:04;4.53;;;3.67;;
16442;SDS011;8331;51.654;14.376;2022-09-19T03:18:35;3.80;;;3.50;;
16442;SDS011;8331;51.654;14.376;2022-09-19T03:21:03;3.63;;;3.30;;
16442;SDS011;8331;51.654;14.376;2022-09-19T03:23:39;3.27;;;3.07;;
16442;SDS011;8331;51.654;14.376;2022-09-19T03:26:14;3.53;;;3.33;;
16442;SDS011;8331;51.654;14.376;2022-09-19T03:28:44;4.47;;;3.30;;
16442;SDS011;8331;51.654;14.376;2022-09-19T03:31:11;4.73;;;3.90;;
16442;SDS011;8331;51.654;14.376;2022-09-19T03:33:37;5.80;;;3.67;;
16442;SDS011;8331;51.654;14.376;2022-09-19T03:36:09;4.27;;;3.70;;
16442;SDS011;8331;51.654;14.376;2022-09-19T03:38:38;5.23;;;4.23;;
16442;SDS011;8331;51.654;14.376;2022-09-19T03:41:18;4.60;;;4.20;;
16442;SDS011;8331;51.654;14.376;2022-09-19T03:43:45;5.23;;;4.17;;
16442;SDS011;8331;51.654;14.376;2022-09-19T03:46:14;5.90;;;3.97;;
16442;SDS011;8331;51.654;14.376;2022-09-19T03:48:45;4.60;;;4.23;;
16442;SDS011;8331;51.654;14.376;2022-09-19T03:51:13;6.47;;;4.23;;
16442;SDS011;8331;51.654;14.376;2022-09-19T03:53:40;5.30;;;4.10;;
16442;SDS011;8331;51.654;14.376;2022-09-19T03:56:11;4.50;;;4.10;;
16442;SDS011;8331;51.654;14.376;2022-09-19T03:58:39;10.00;;;4.80;;
16442;SDS011;8331;51.654;14.376;2022-09-19T04:01:08;5.07;;;4.03;;
16442;SDS011;8331;51.654;14.376;2022-09-19T04:03:36;5.00;;;4.23;;
16442;SDS011;8331;51.654;14.376;2022-09-19T04:06:07;5.73;;;3.93;;
16442;SDS011;8331;51.654;14.376;2022-09-19T04:08:34;3.90;;;3.60;;
16442;SDS011;8331;51.654;14.376;2022-09-19T04:11:01;4.10;;;3.70;;
16442;SDS011;8331;51.654;14.376;2022-09-19T04:13:27;4.00;;;3.70;;
16442;SDS011;8331;51.654;14.376;2022-09-19T04:16:03;4.13;;;3.73;;
16442;SDS011;8331;51.654;14.376;2022-09-19T04:18:31;7.63;;;3.73;;
16442;SDS011;8331;51.654;14.376;2022-09-19T04:20:59;7.10;;;3.90;;
16442;SDS011;8331;51.654;14.376;2022-09-19T04:23:43;3.80;;;3.40;;
16442;SDS011;8331;51.654;14.376;2022-09-19T04:26:32;4.63;;;3.60;;
16442;SDS011;8331;51.654;14.376;2022-09-19T04:28:59;4.87;;;3.43;;
16442;SDS011;8331;51.654;14.376;2022-09-19T04:31:29;3.37;;;3.07;;
16442;SDS011;8331;51.654;14.376;2022-09-19T04:34:05;4.17;;;3.33;;
16442;SDS011;8331;51.654;14.376;2022-09-19T04:36:33;3.93;;;3.23;;
16442;SDS011;8331;51.654;14.376;2022-09-19T04:39:00;4.80;;;3.60;;
16442;SDS011;8331;51.654;14.376;2022-09-19T04:41:34;5.10;;;3.50;;
16442;SDS011;8331;51.654;14.376;2022-09-19T04:44:02;4.17;;;3.67;;
16442;SDS011;8331;51.654;14.376;2022-09-19T04:46:45;4.03;;;3.63;;
16442;SDS011;8331;51.654;14.376;2022-09-19T04:49:14;3.47;;;3.13;;
16442;SDS011;8331;51.654;14.376;2022-09-19T04:51:42;4.43;;;3.60;;
16442;SDS011;8331;51.654;14.376;2022-09-19T04:54:09;4.40;;;3.50;;
16442;SDS011;8331;51.654;14.376;2022-09-19T04:56:36;4.10;;;3.53;;
16442;SDS011;8331;51.654;14.376;2022-09-19T04:59:04;7.07;;;4.07;;
16442;SDS011;8331;51.654;14.376;2022-09-19T05:01:33;4.20;;;3.80;;
16442;SDS011;8331;51.654;14.376;2022-09-19T05:04:00;4.07;;;3.67;;
16442;SDS011;8331;51.654;14.376;2022-09-19T05:06:26;4.10;;;3.80;;
16442;SDS011;8331;51.654;14.376;2022-09-19T05:08:55;5.67;;;4.07;;
16442;SDS011;8331;51.654;14.376;2022-09-19T05:11:30;4.43;;;3.63;;
16442;SDS011;8331;51.654;14.376;2022-09-19T05:13:57;4.20;;;3.90;;
16442;SDS011;8331;51.654;14.376;2022-09-19T05:16:27;4.10;;;3.70;;
16442;SDS011;8331;51.654;14.376;2022-09-19T05:18:58;6.13;;;4.23;;
16442;SDS011;8331;51.654;14.376;2022-09-19T05:21:25;4.30;;;3.60;;
16442;SDS011;8331;51.654;14.376;2022-09-19T05:23:53;6.47;;;4.20;;
16442;SDS011;8331;51.654;14.376;2022-09-19T05:26:21;5.50;;;4.30;;
16442;SDS011;8331;51.654;14.376;2022-09-19T05:28:50;5.00;;;3.73;;
16442;SDS011;8331;51.654;14.376;2022-09-19T05:31:19;4.87;;;3.77;;
16442;SDS011;8331;51.654;14.376;2022-09-19T05:34:16;4.17;;;3.33;;
16442;SDS011;8331;51.654;14.376;2022-09-19T05:36:43;4.20;;;3.80;;
16442;SDS011;8331;51.654;14.376;2022-09-19T05:39:16;3.83;;;3.50;;
16442;SDS011;8331;51.654;14.376;2022-09-19T05:42:09;7.63;;;4.27;;
16442;SDS011;8331;51.654;14.376;2022-09-19T05:44:36;4.30;;;3.90;;
16442;SDS011;8331;51.654;14.376;2022-09-19T05:47:03;4.17;;;3.77;;
16442;SDS011;8331;51.654;14.376;2022-09-19T05:49:30;4.73;;;3.70;;
16442;SDS011;8331;51.654;14.376;2022-09-19T05:52:00;4.07;;;3.77;;
16442;SDS011;8331;51.654;14.376;2022-09-19T05:54:47;4.53;;;3.70;;
16442;SDS011;8331;51.654;14.376;2022-09-19T05:57:27;4.23;;;3.80;;
16442;SDS011;8331;51.654;14.376;2022-09-19T05:59:54;3.40;;;3.10;;
16442;SDS011;8331;51.654;14.376;2022-09-19T06:02:22;3.23;;;3.03;;
16442;SDS011;8331;51.654;14.376;2022-09-19T06:04:57;4.70;;;3.17;;
16442;SDS011;8331;51.654;14.376;2022-09-19T06:07:24;6.40;;;3.63;;
16442;SDS011;8331;51.654;14.376;2022-09-19T06:09:52;5.17;;;3.20;;
16442;SDS011;8331;51.654;14.376;2022-09-19T06:12:22;3.80;;;3.50;;
16442;SDS011;8331;51.654;14.376;2022-09-19T06:14:50;4.70;;;4.00;;
16442;SDS011;8331;51.654;14.376;2022-09-19T06:17:18;4.23;;;3.83;;
16442;SDS011;8331;51.654;14.376;2022-09-19T06:19:53;4.87;;;4.10;;
16442;SDS011;8331;51.654;14.376;2022-09-19T06:22:30;4.67;;;4.07;;
16442;SDS011;8331;51.654;14.376;2022-09-19T06:24:57;4.40;;;4.03;;
16442;SDS011;8331;51.654;14.376;2022-09-19T06:27:23;4.67;;;4.30;;
16442;SDS011;8331;51.654;14.376;2022-09-19T06:29:51;8.20;;;4.70;;
16442;SDS011;8331;51.654;14.376;2022-09-19T06:32:20;6.10;;;4.37;;
16442;SDS011;8331;51.654;14.376;2022-09-19T06:35:00;5.27;;;4.60;;
16442;SDS011;8331;51.654;14.376;2022-09-19T06:37:31;4.53;;;4.10;;
16442;SDS011;8331;51.654;14.376;2022-09-19T06:39:58;5.13;;;4.43;;
16442;SDS011;8331;51.654;14.376;2022-09-19T06:42:44;6.37;;;4.30;;
16442;SDS011;8331;51.654;14.376;2022-09-19T06:45:30;5.60;;;3.77;;
16442;SDS011;8331;51.654;14.376;2022-09-19T06:48:32;5.43;;;4.27;;
16442;SDS011;8331;51.654;14.376;2022-09-19T06:51:17;4.73;;;4.43;;
16442;SDS011;8331;51.654;14.376;2022-09-19T06:53:46;5.20;;;4.70;;
16442;SDS011;8331;51.654;14.376;2022-09-19T06:56:14;5.40;;;4.10;;
16442;SDS011;8331;51.654;14.376;2022-09-19T06:58:41;6.00;;;4.20;;
16442;SDS011;8331;51.654;14.376;2022-09-19T07:01:08;4.90;;;4.50;;
16442;SDS011;8331;51.654;14.376;2022-09-19T07:03:35;5.77;;;4.80;;
16442;SDS011;8331;51.654;14.376;2022-09-19T07:06:03;5.83;;;4.93;;
16442;SDS011;8331;51.654;14.376;2022-09-19T07:08:36;5.23;;;4.70;;
16442;SDS011;8331;51.654;14.376;2022-09-19T07:11:06;5.87;;;5.17;;
16442;SDS011;8331;51.654;14.376;2022-09-19T07:13:37;5.17;;;4.67;;
16442;SDS011;8331;51.654;14.376;2022-09-19T07:16:07;5.57;;;5.07;;
16442;SDS011;8331;51.654;14.376;2022-09-19T07:18:34;5.23;;;4.73;;
16442;SDS011;8331;51.654;14.376;2022-09-19T07:21:27;6.83;;;4.60;;
16442;SDS011;8331;51.654;14.376;2022-09-19T07:23:56;6.13;;;5.27;;
16442;SDS011;8331;51.654;14.376;2022-09-19T07:26:44;6.70;;;5.57;;
16442;SDS011;8331;51.654;14.376;2022-09-19T07:29:15;5.07;;;4.67;;
16442;SDS011;8331;51.654;14.376;2022-09-19T07:31:42;7.30;;;5.00;;
16442;SDS011;8331;51.654;14.376;2022-09-19T07:34:09;5.53;;;5.00;;
16442;SDS011;8331;51.654;14.376;2022-09-19T07:36:44;5.53;;;5.00;;
16442;SDS011;8331;51.654;14.376;2022-09-19T07:39:11;5.90;;;5.33;;
16442;SDS011;8331;51.654;14.376;2022-09-19T07:41:58;5.87;;;5.23;;
16442;SDS011;8331;51.654;14.376;2022-09-19T07:44:49;6.27;;;5.00;;
16442;SDS011;8331;51.654;14.376;2022-09-19T07:47:34;5.97;;;5.17;;
16442;SDS011;8331;51.654;14.376;2022-09-19T07:50:07;6.40;;;5.40;;
16442;SDS011;8331;51.654;14.376;2022-09-19T07:52:36;6.80;;;4.87;;
16442;SDS011;8331;51.654;14.376;2022-09-19T07:55:06;7.17;;;5.23;;
16442;SDS011;8331;51.654;14.376;2022-09-19T07:57:33;5.50;;;5.03;;
16442;SDS011;8331;51.654;14.376;2022-09-19T08:00:00;5.97;;;5.40;;
16442;SDS011;8331;51.654;14.376;2022-09-19T08:02:31;5.17;;;4.77;;
16442;SDS011;8331;51.654;14.376;2022-09-19T08:04:58;5.50;;;4.63;;
16442;SDS011;8331;51.654;14.376;2022-09-19T08:07:25;6.03;;;5.20;;
16442;SDS011;8331;51.654;14.376;2022-09-19T08:09:52;6.30;;;5.67;;
16442;SDS011;8331;51.654;14.376;2022-09-19T08:12:22;5.43;;;4.93;;
16442;SDS011;8331;51.654;14.376;2022-09-19T08:14:59;7.10;;;4.47;;
16442;SDS011;8331;51.654;14.376;2022-09-19T08:17:25;4.90;;;4.50;;
16442;SDS011;8331;51.654;14.376;2022-09-19T08:19:54;6.10;;;5.37;;
16442;SDS011;8331;51.654;14.376;2022-09-19T08:22:22;5.10;;;4.60;;
16442;SDS011;8331;51.654;14.376;2022-09-19T08:24:56;9.80;;;8.63;;
16442;SDS011;8331;51.654;14.376;2022-09-19T08:27:23;14.93;;;13.73;;
16442;SDS011;8331;51.654;14.376;2022-09-19T08:29:50;7.57;;;7.00;;
16442;SDS011;8331;51.654;14.376;2022-09-19T08:32:17;7.47;;;6.90;;
16442;SDS011;8331;51.654;14.376;2022-09-19T08:34:43;11.97;;;10.90;;
16442;SDS011;8331;51.654;14.376;2022-09-19T08:37:12;8.40;;;6.43;;
16442;SDS011;8331;51.654;14.376;2022-09-19T08:39:41;4.63;;;4.33;;
16442;SDS011;8331;51.654;14.376;2022-09-19T08:42:36;5.23;;;4.63;;
16442;SDS011;8331;51.654;14.376;2022-09-19T08:45:16;4.70;;;4.40;;
16442;SDS011;8331;51.654;14.376;2022-09-19T08:48:04;7.73;;;7.03;;
16442;SDS011;8331;51.654;14.376;2022-09-19T08:50:32;7.67;;;6.33;;
16442;SDS011;8331;51.654;14.376;2022-09-19T08:53:10;5.27;;;4.87;;
16442;SDS011;8331;51.654;14.376;2022-09-19T08:55:39;6.17;;;5.60;;
16442;SDS011;8331;51.654;14.376;2022-09-19T08:58:14;6.37;;;5.20;;
16442;SDS011;8331;51.654;14.376;2022-09-19T09:01:04;6.77;;;6.33;;
16442;SDS011;8331;51.654;14.376;2022-09-19T09:24:44;3.47;;;3.17;;
16442;SDS011;8331;51.654;14.376;2022-09-19T09:27:51;4.13;;;2.60;;
16442;SDS011;8331;51.654;14.376;2022-09-19T09:30:29;3.17;;;2.97;;
16442;SDS011;8331;51.654;14.376;2022-09-19T09:33:10;2.10;;;2.00;;
16442;SDS011;8331;51.654;14.376;2022-09-19T09:35:48;3.93;;;2.70;;
16442;SDS011;8331;51.654;14.376;2022-09-19T09:38:23;3.40;;;2.40;;
16442;SDS011;8331;51.654;14.376;2022-09-19T09:41:00;2.90;;;2.80;;
16442;SDS011;8331;51.654;14.376;2022-09-19T09:46:48;3.33;;;2.20;;
16442;SDS011;8331;51.654;14.376;2022-09-19T09:49:25;2.13;;;1.90;;
16442;SDS011;8331;51.654;14.376;2022-09-19T10:01:09;2.13;;;1.80;;
16442;SDS011;8331;51.654;14.376;2022-09-19T10:04:07;2.10;;;1.90;;
16442;SDS011;8331;51.654;14.376;2022-09-19T10:07:08;3.60;;;1.97;;
16442;SDS011;8331;51.654;14.376;2022-09-19T10:09:45;2.43;;;2.00;;
16442;SDS011;8331;51.654;14.376;2022-09-19T10:12:25;2.40;;;1.60;;
16442;SDS011;8331;51.654;14.376;2022-09-19T10:15:19;2.47;;;1.60;;
16442;SDS011;8331;51.654;14.376;2022-09-19T10:18:00;3.53;;;1.90;;
16442;SDS011;8331;51.654;14.376;2022-09-19T10:20:39;1.90;;;1.80;;
16442;SDS011;8331;51.654;14.376;2022-09-19T10:23:16;2.30;;;1.80;;
16442;SDS011;8331;51.654;14.376;2022-09-19T10:25:48;1.73;;;1.63;;
16442;SDS011;8331;51.654;14.376;2022-09-19T10:28:27;1.40;;;1.30;;
16442;SDS011;8331;51.654;14.376;2022-09-19T10:31:20;1.97;;;1.63;;
16442;SDS011;8331;51.654;14.376;2022-09-19T10:33:55;2.50;;;1.40;;
16442;SDS011;8331;51.654;14.376;2022-09-19T10:36:28;1.57;;;1.30;;
16442;SDS011;8331;51.654;14.376;2022-09-19T10:39:08;2.50;;;1.27;;
16442;SDS011;8331;51.654;14.376;2022-09-19T10:41:40;1.13;;;1.13;;
16442;SDS011;8331;51.654;14.376;2022-09-19T10:46:43;2.00;;;1.20;;
16442;SDS011;8331;51.654;14.376;2022-09-19T10:49:28;1.60;;;1.13;;
16442;SDS011;8331;51.654;14.376;2022-09-19T10:51:59;1.30;;;1.20;;
16442;SDS011;8331;51.654;14.376;2022-09-19T10:54:28;1.33;;;1.20;;
16442;SDS011;8331;51.654;14.376;2022-09-19T10:56:58;0.90;;;0.90;;
16442;SDS011;8331;51.654;14.376;2022-09-19T10:59:29;1.67;;;1.23;;
16442;SDS011;8331;51.654;14.376;2022-09-19T11:02:28;2.50;;;1.40;;
16442;SDS011;8331;51.654;14.376;2022-09-19T11:07:24;1.83;;;1.50;;
16442;SDS011;8331;51.654;14.376;2022-09-19T11:09:54;2.00;;;1.37;;
16442;SDS011;8331;51.654;14.376;2022-09-19T11:12:27;3.03;;;1.43;;
16442;SDS011;8331;51.654;14.376;2022-09-19T11:14:58;1.60;;;1.10;;
16442;SDS011;8331;51.654;14.376;2022-09-19T11:23:16;1.80;;;1.70;;
16442;SDS011;8331;51.654;14.376;2022-09-19T11:26:05;2.70;;;2.10;;
16442;SDS011;8331;51.654;14.376;2022-09-19T11:37:56;1.17;;;1.00;;
16442;SDS011;8331;51.654;14.376;2022-09-19T11:49:21;1.53;;;1.10;;
16442;SDS011;8331;51.654;14.376;2022-09-19T11:52:16;0.60;;;0.60;;
16442;SDS011;8331;51.654;14.376;2022-09-19T11:58:05;1.83;;;0.90;;
16442;SDS011;8331;51.654;14.376;2022-09-19T12:03:26;0.83;;;0.70;;
16442;SDS011;8331;51.654;14.376;2022-09-19T12:09:02;1.80;;;0.97;;
16442;SDS011;8331;51.654;14.376;2022-09-19T12:11:41;0.67;;;0.67;;
16442;SDS011;8331;51.654;14.376;2022-09-19T12:14:25;1.03;;;0.93;;
16442;SDS011;8331;51.654;14.376;2022-09-19T12:17:00;1.00;;;0.90;;
16442;SDS011;8331;51.654;14.376;2022-09-19T12:19:36;1.20;;;0.80;;
16442;SDS011;8331;51.654;14.376;2022-09-19T12:22:25;2.40;;;0.70;;
16442;SDS011;8331;51.654;14.376;2022-09-19T12:24:59;1.37;;;0.87;;
16442;SDS011;8331;51.654;14.376;2022-09-19T12:27:44;0.63;;;0.63;;
16442;SDS011;8331;51.654;14.376;2022-09-19T12:30:16;1.60;;;0.77;;
16442;SDS011;8331;51.654;14.376;2022-09-19T12:32:59;0.83;;;0.70;;
16442;SDS011;8331;51.654;14.376;2022-09-19T12:35:42;2.10;;;1.00;;
16442;SDS011;8331;51.654;14.376;2022-09-19T12:38:24;1.27;;;0.80;;
16442;SDS011;8331;51.654;14.376;2022-09-19T12:53:08;3.00;;;0.60;;
16442;SDS011;8331;51.654;14.376;2022-09-19T12:55:52;1.20;;;1.10;;
16442;SDS011;8331;51.654;14.376;2022-09-19T12:58:24;2.03;;;0.33;;
16442;SDS011;8331;51.654;14.376;2022-09-19T13:03:53;0.60;;;0.30;;
16442;SDS011;8331;51.654;14.376;2022-09-19T13:06:26;0.73;;;0.50;;
16442;SDS011;8331;51.654;14.376;2022-09-19T13:09:00;0.50;;;0.30;;
16442;SDS011;8331;51.654;14.376;2022-09-19T13:11:36;0.80;;;0.50;;
16442;SDS011;8331;51.654;14.376;2022-09-19T13:14:11;1.70;;;0.50;;
16442;SDS011;8331;51.654;14.376;2022-09-19T13:16:40;1.47;;;0.53;;
16442;SDS011;8331;51.654;14.376;2022-09-19T13:19:37;0.30;;;0.30;;
16442;SDS011;8331;51.654;14.376;2022-09-19T13:22:23;1.17;;;0.50;;
16442;SDS011;8331;51.654;14.376;2022-09-19T13:25:18;0.53;;;0.50;;
16442;SDS011;8331;51.654;14.376;2022-09-19T13:27:46;0.80;;;0.57;;
16442;SDS011;8331;51.654;14.376;2022-09-19T13:30:49;0.43;;;0.43;;
16442;SDS011;8331;51.654;14.376;2022-09-19T13:33:19;0.47;;;0.47;;
16442;SDS011;8331;51.654;14.376;2022-09-19T13:38:54;0.50;;;0.50;;
16442;SDS011;8331;51.654;14.376;2022-09-19T13:44:27;0.40;;;0.40;;
16442;SDS011;8331;51.654;14.376;2022-09-19T13:47:02;0.40;;;0.40;;
16442;SDS011;8331;51.654;14.376;2022-09-19T13:49:37;1.43;;;0.33;;
16442;SDS011;8331;51.654;14.376;2022-09-19T13:52:09;0.73;;;0.30;;
16442;SDS011;8331;51.654;14.376;2022-09-19T13:57:22;0.40;;;0.30;;
16442;SDS011;8331;51.654;14.376;2022-09-19T13:59:59;0.33;;;0.33;;
16442;SDS011;8331;51.654;14.376;2022-09-19T14:02:38;0.93;;;0.43;;
16442;SDS011;8331;51.654;14.376;2022-09-19T14:05:20;0.50;;;0.50;;
16442;SDS011;8331;51.654;14.376;2022-09-19T14:18:28;0.87;;;0.30;;
16442;SDS011;8331;51.654;14.376;2022-09-19T14:23:36;0.33;;;0.30;;
16442;SDS011;8331;51.654;14.376;2022-09-19T14:28:49;2.03;;;0.50;;
16442;SDS011;8331;51.654;14.376;2022-09-19T14:39:47;0.60;;;0.60;;
16442;SDS011;8331;51.654;14.376;2022-09-19T14:45:07;0.83;;;0.83;;
16442;SDS011;8331;51.654;14.376;2022-09-19T14:47:41;1.33;;;0.70;;
16442;SDS011;8331;51.654;14.376;2022-09-19T14:52:53;0.80;;;0.80;;
16442;SDS011;8331;51.654;14.376;2022-09-19T14:55:27;1.97;;;1.03;;
16442;SDS011;8331;51.654;14.376;2022-09-19T14:57:55;2.13;;;1.23;;
16442;SDS011;8331;51.654;14.376;2022-09-19T15:00:32;1.30;;;1.30;;
16442;SDS011;8331;51.654;14.376;2022-09-19T15:03:10;1.00;;;1.00;;
16442;SDS011;8331;51.654;14.376;2022-09-19T15:05:37;1.10;;;1.10;;
16442;SDS011;8331;51.654;14.376;2022-09-19T15:08:12;2.47;;;1.13;;
16442;SDS011;8331;51.654;14.376;2022-09-19T15:10:41;1.80;;;1.33;;
16442;SDS011;8331;51.654;14.376;2022-09-19T15:13:16;0.63;;;0.63;;
16442;SDS011;8331;51.654;14.376;2022-09-19T15:15:47;8.73;;;7.83;;
16442;SDS011;8331;51.654;14.376;2022-09-19T15:18:23;1.63;;;1.53;;
16442;SDS011;8331;51.654;14.376;2022-09-19T15:20:52;1.43;;;0.97;;
16442;SDS011;8331;51.654;14.376;2022-09-19T15:23:22;3.80;;;2.70;;
16442;SDS011;8331;51.654;14.376;2022-09-19T15:25:54;1.53;;;0.80;;
16442;SDS011;8331;51.654;14.376;2022-09-19T15:28:26;2.23;;;0.90;;
16442;SDS011;8331;51.654;14.376;2022-09-19T15:30:55;0.80;;;0.80;;
16442;SDS011;8331;51.654;14.376;2022-09-19T15:33:25;2.40;;;0.60;;
16442;SDS011;8331;51.654;14.376;2022-09-19T15:35:55;0.70;;;0.70;;
16442;SDS011;8331;51.654;14.376;2022-09-19T15:38:30;0.80;;;0.60;;
16442;SDS011;8331;51.654;14.376;2022-09-19T15:40:59;1.03;;;0.70;;
16442;SDS011;8331;51.654;14.376;2022-09-19T15:43:27;1.57;;;0.70;;
16442;SDS011;8331;51.654;14.376;2022-09-19T15:45:56;1.47;;;0.40;;
16442;SDS011;8331;51.654;14.376;2022-09-19T15:50:55;0.60;;;0.50;;
16442;SDS011;8331;51.654;14.376;2022-09-19T15:53:25;0.63;;;0.40;;
16442;SDS011;8331;51.654;14.376;2022-09-19T15:56:02;1.17;;;0.30;;
16442;SDS011;8331;51.654;14.376;2022-09-19T15:58:30;0.53;;;0.53;;
16442;SDS011;8331;51.654;14.376;2022-09-19T16:01:07;0.30;;;0.30;;
16442;SDS011;8331;51.654;14.376;2022-09-19T16:03:37;0.37;;;0.37;;
16442;SDS011;8331;51.654;14.376;2022-09-19T16:06:21;0.37;;;0.37;;
16442;SDS011;8331;51.654;14.376;2022-09-19T16:09:09;0.60;;;0.60;;
16442;SDS011;8331;51.654;14.376;2022-09-19T16:11:37;0.30;;;0.30;;
16442;SDS011;8331;51.654;14.376;2022-09-19T16:14:43;2.83;;;0.50;;
16442;SDS011;8331;51.654;14.376;2022-09-19T16:17:12;0.30;;;0.30;;
16442;SDS011;8331;51.654;14.376;2022-09-19T16:19:46;2.03;;;1.17;;
16442;SDS011;8331;51.654;14.376;2022-09-19T16:22:14;0.60;;;0.60;;
16442;SDS011;8331;51.654;14.376;2022-09-19T16:24:46;0.40;;;0.40;;
16442;SDS011;8331;51.654;14.376;2022-09-19T16:27:18;1.70;;;0.50;;
16442;SDS011;8331;51.654;14.376;2022-09-19T16:29:53;0.60;;;0.60;;
16442;SDS011;8331;51.654;14.376;2022-09-19T16:32:20;0.70;;;0.70;;
16442;SDS011;8331;51.654;14.376;2022-09-19T16:34:51;1.03;;;0.40;;
16442;SDS011;8331;51.654;14.376;2022-09-19T16:39:50;0.57;;;0.43;;
16442;SDS011;8331;51.654;14.376;2022-09-19T16:42:21;0.50;;;0.47;;
16442;SDS011;8331;51.654;14.376;2022-09-19T16:45:11;0.40;;;0.40;;
16442;SDS011;8331;51.654;14.376;2022-09-19T16:47:47;2.00;;;0.50;;
16442;SDS011;8331;51.654;14.376;2022-09-19T16:50:16;1.37;;;0.50;;
16442;SDS011;8331;51.654;14.376;2022-09-19T16:52:45;2.53;;;0.57;;
16442;SDS011;8331;51.654;14.376;2022-09-19T16:55:18;0.87;;;0.50;;
16442;SDS011;8331;51.654;14.376;2022-09-19T16:57:49;0.40;;;0.40;;
16442;SDS011;8331;51.654;14.376;2022-09-19T17:00:17;0.80;;;0.50;;
16442;SDS011;8331;51.654;14.376;2022-09-19T17:02:44;0.70;;;0.70;;
16442;SDS011;8331;51.654;14.376;2022-09-19T17:05:15;0.70;;;0.70;;
16442;SDS011;8331;51.654;14.376;2022-09-19T17:07:49;0.80;;;0.80;;
16442;SDS011;8331;51.654;14.376;2022-09-19T17:10:17;0.90;;;0.90;;
16442;SDS011;8331;51.654;14.376;2022-09-19T17:12:44;1.60;;;0.90;;
16442;SDS011;8331;51.654;14.376;2022-09-19T17:15:34;0.80;;;0.70;;
16442;SDS011;8331;51.654;14.376;2022-09-19T17:18:09;1.73;;;0.70;;
16442;SDS011;8331;51.654;14.376;2022-09-19T17:20:40;0.70;;;0.70;;
16442;SDS011;8331;51.654;14.376;2022-09-19T17:23:14;0.70;;;0.70;;
16442;SDS011;8331;51.654;14.376;2022-09-19T17:28:14;1.70;;;0.90;;
16442;SDS011;8331;51.654;14.376;2022-09-19T17:30:42;1.20;;;0.77;;
16442;SDS011;8331;51.654;14.376;2022-09-19T17:33:12;1.23;;;0.80;;
16442;SDS011;8331;51.654;14.376;2022-09-19T17:35:40;0.80;;;0.80;;
16442;SDS011;8331;51.654;14.376;2022-09-19T17:38:07;2.43;;;1.10;;
16442;SDS011;8331;51.654;14.376;2022-09-19T17:40:38;1.20;;;1.10;;
16442;SDS011;8331;51.654;14.376;2022-09-19T17:43:06;1.10;;;1.07;;
16442;SDS011;8331;51.654;14.376;2022-09-19T17:45:35;1.00;;;1.00;;
16442;SDS011;8331;51.654;14.376;2022-09-19T17:48:01;1.17;;;0.90;;
16442;SDS011;8331;51.654;14.376;2022-09-19T17:50:28;1.83;;;1.07;;
16442;SDS011;8331;51.654;14.376;2022-09-19T17:52:56;2.33;;;0.80;;
16442;SDS011;8331;51.654;14.376;2022-09-19T17:55:23;0.83;;;0.83;;
16442;SDS011;8331;51.654;14.376;2022-09-19T17:57:49;1.13;;;0.80;;
16442;SDS011;8331;51.654;14.376;2022-09-19T18:00:17;1.87;;;0.67;;
16442;SDS011;8331;51.654;14.376;2022-09-19T18:02:43;0.73;;;0.73;;
16442;SDS011;8331;51.654;14.376;2022-09-19T18:05:29;1.40;;;0.70;;
16442;SDS011;8331;51.654;14.376;2022-09-19T18:07:57;0.80;;;0.80;;
16442;SDS011;8331;51.654;14.376;2022-09-19T18:10:26;0.73;;;0.60;;
16442;SDS011;8331;51.654;14.376;2022-09-19T18:12:54;0.83;;;0.60;;